createdAt,value
2022-11-15T00:01:29.414Z,9.68
2022-11-15T00:04:14.896Z,10.43
2022-11-15T00:07:00.248Z,9.50
2022-11-15T00:09:46.201Z,9.23
2022-11-15T00:12:31.491Z,9.00
2022-11-15T00:15:17.106Z,9.32
2022-11-15T00:18:03.326Z,9.75
2022-11-15T00:20:48.544Z,10.52
2022-11-15T00:23:35.034Z,9.63
2022-11-15T00:26:20.347Z,10.10
2022-11-15T00:29:06.444Z,10.35
2022-11-15T00:31:51.502Z,10.15
2022-11-15T00:34:37.054Z,9.60
2022-11-15T00:37:22.201Z,10.60
2022-11-15T00:40:09.178Z,12.27
2022-11-15T00:42:54.355Z,9.65
2022-11-15T00:45:39.822Z,10.15
2022-11-15T00:48:25.546Z,11.13
2022-11-15T00:51:10.587Z,10.63
2022-11-15T00:53:55.952Z,10.40
2022-11-15T00:56:41.147Z,9.25
2022-11-15T00:59:26.516Z,9.55
2022-11-15T01:02:11.735Z,9.23
2022-11-15T01:04:57.229Z,9.40
2022-11-15T01:07:42.655Z,10.77
2022-11-15T01:10:28.047Z,10.57
2022-11-15T01:13:13.553Z,10.68
2022-11-15T01:15:59.604Z,9.55
2022-11-15T01:18:46.195Z,10.40
2022-11-15T01:21:31.852Z,9.52
2022-11-15T01:24:17.326Z,10.38
2022-11-15T01:27:02.869Z,9.52
2022-11-15T01:29:48.499Z,9.23
2022-11-15T01:32:33.669Z,9.25
2022-11-15T01:35:19.032Z,9.63
2022-11-15T01:38:04.286Z,9.07
2022-11-15T01:40:50.449Z,8.95
2022-11-15T01:43:37.487Z,8.02
2022-11-15T01:46:34.305Z,8.05
2022-11-15T01:49:23.488Z,8.07
2022-11-15T01:52:14.652Z,8.13
2022-11-15T01:54:59.914Z,8.02
2022-11-15T01:57:50.001Z,8.32
2022-11-15T02:00:36.025Z,8.02
2022-11-15T02:03:26.294Z,6.85
2022-11-15T02:06:11.524Z,7.80
2022-11-15T02:08:57.825Z,7.43
2022-11-15T02:11:44.262Z,7.22
2022-11-15T02:14:31.701Z,7.30
2022-11-15T02:17:54.530Z,7.78
2022-11-15T02:21:11.953Z,7.25
2022-11-15T02:24:34.501Z,6.03
2022-11-15T02:27:58.281Z,7.05
2022-11-15T02:30:50.244Z,7.80
2022-11-15T02:33:54.824Z,7.70
2022-11-15T02:37:00.353Z,9.48
2022-11-15T02:40:19.118Z,7.78
2022-11-15T02:43:31.722Z,9.00
2022-11-15T02:46:48.746Z,8.60
2022-11-15T02:49:36.027Z,7.35
2022-11-15T02:52:24.043Z,8.18
2022-11-15T02:55:37.980Z,8.65
2022-11-15T02:59:01.434Z,8.45
2022-11-15T03:08:03.469Z,8.45
2022-11-15T03:10:58.532Z,7.65
2022-11-15T03:14:09.770Z,7.55
2022-11-15T03:17:09.886Z,8.00
2022-11-15T03:19:59.901Z,8.43
2022-11-15T03:22:47.810Z,8.80
2022-11-15T03:25:35.751Z,7.93
2022-11-15T03:28:32.681Z,7.05
2022-11-15T03:31:39.015Z,7.63
2022-11-15T03:34:31.192Z,8.38
2022-11-15T03:37:18.371Z,8.63
2022-11-15T03:40:05.195Z,8.93
2022-11-15T03:43:00.064Z,9.10
2022-11-15T03:45:51.299Z,9.07
2022-11-15T03:48:41.380Z,8.25
2022-11-15T03:51:26.969Z,8.15
2022-11-15T03:54:13.314Z,8.18
2022-11-15T03:56:58.441Z,7.97
2022-11-15T03:59:43.829Z,7.72
2022-11-15T04:02:29.193Z,8.18
2022-11-15T04:05:14.480Z,8.63
2022-11-15T04:07:59.973Z,6.82
2022-11-15T04:10:45.330Z,8.27
2022-11-15T04:13:30.984Z,8.43
2022-11-15T04:16:16.686Z,6.95
2022-11-15T04:19:20.441Z,7.18
2022-11-15T04:22:24.348Z,8.73
2022-11-15T04:25:09.886Z,6.97
2022-11-15T04:27:55.345Z,8.48
2022-11-15T04:30:40.796Z,7.47
2022-11-15T04:33:26.668Z,9.05
2022-11-15T04:36:30.590Z,7.78
2022-11-15T04:39:15.975Z,8.50
2022-11-15T04:42:01.289Z,7.18
2022-11-15T04:44:46.494Z,7.60
2022-11-15T04:47:31.869Z,7.82
2022-11-15T04:50:17.896Z,7.43
2022-11-15T04:53:03.358Z,7.80
2022-11-15T04:55:48.714Z,8.85
2022-11-15T04:58:34.698Z,8.00
2022-11-15T05:01:20.324Z,9.07
2022-11-15T05:04:20.663Z,8.23
2022-11-15T05:07:05.887Z,8.07
2022-11-15T05:09:51.266Z,8.18
2022-11-15T05:12:36.698Z,7.40
2022-11-15T05:15:22.276Z,7.80
2022-11-15T05:18:07.689Z,8.30
2022-11-15T05:20:53.026Z,7.28
2022-11-15T05:23:39.056Z,7.47
2022-11-15T05:26:24.672Z,9.30
2022-11-15T05:29:11.098Z,7.50
2022-11-15T05:31:56.256Z,7.45
2022-11-15T05:34:41.670Z,6.80
2022-11-15T05:37:26.973Z,6.63
2022-11-15T05:40:12.370Z,8.63
2022-11-15T05:42:58.333Z,7.95
2022-11-15T05:45:43.776Z,8.10
2022-11-15T05:48:29.388Z,10.05
2022-11-15T05:51:16.964Z,9.48
2022-11-15T05:54:03.125Z,8.57
2022-11-15T05:56:49.506Z,7.80
2022-11-15T05:59:36.162Z,7.72
2022-11-15T06:02:21.203Z,7.90
2022-11-15T06:05:06.819Z,7.60
2022-11-15T06:07:52.046Z,8.82
2022-11-15T06:10:37.521Z,7.75
2022-11-15T06:13:22.929Z,9.30
2022-11-15T06:16:08.413Z,9.88
2022-11-15T06:18:53.905Z,9.13
2022-11-15T06:21:39.181Z,8.65
2022-11-15T06:24:24.666Z,8.90
2022-11-15T06:27:10.114Z,9.35
2022-11-15T06:29:55.669Z,8.13
2022-11-15T06:32:41.022Z,8.63
2022-11-15T06:35:26.476Z,8.23
2022-11-15T06:38:12.458Z,7.82
2022-11-15T06:41:06.630Z,8.10
2022-11-15T06:43:51.620Z,8.88
2022-11-15T06:46:37.090Z,9.70
2022-11-15T06:49:22.673Z,9.25
2022-11-15T06:52:08.174Z,8.65
2022-11-15T06:54:53.654Z,9.27
2022-11-15T06:57:47.943Z,8.82
2022-11-15T07:00:33.269Z,8.52
2022-11-15T07:03:18.887Z,8.38
2022-11-15T07:06:07.357Z,8.00
2022-11-15T07:08:53.874Z,8.65
2022-11-15T07:11:39.476Z,9.65
2022-11-15T07:14:24.797Z,7.72
2022-11-15T07:17:10.120Z,8.20
2022-11-15T07:19:55.492Z,10.15
2022-11-15T07:22:41.809Z,8.80
2022-11-15T07:25:27.161Z,9.18
2022-11-15T07:28:13.522Z,8.85
2022-11-15T07:30:59.072Z,8.18
2022-11-15T07:33:44.388Z,9.05
2022-11-15T07:36:29.741Z,8.73
2022-11-15T07:39:15.725Z,9.35
2022-11-15T07:42:19.422Z,10.80
2022-11-15T07:45:06.015Z,9.07
2022-11-15T07:47:51.384Z,8.85
2022-11-15T07:50:36.887Z,8.85
2022-11-15T07:53:22.272Z,8.95
2022-11-15T07:56:08.631Z,10.30
2022-11-15T07:58:54.080Z,10.27
2022-11-15T08:01:39.576Z,10.70
2022-11-15T08:04:24.991Z,10.30
2022-11-15T08:07:10.394Z,9.75
2022-11-15T08:09:56.206Z,11.38
2022-11-15T08:12:41.428Z,9.48
2022-11-15T08:15:27.647Z,9.98
2022-11-15T08:18:15.304Z,8.82
2022-11-15T08:21:01.929Z,9.63
2022-11-15T08:23:47.246Z,8.77
2022-11-15T08:26:32.721Z,8.82
2022-11-15T08:29:18.248Z,5.85
2022-11-15T08:32:03.498Z,8.15
2022-11-15T08:34:48.815Z,8.75
2022-11-15T08:37:34.129Z,9.30
2022-11-15T08:40:20.774Z,8.18
2022-11-15T08:43:06.131Z,7.53
2022-11-15T08:45:51.554Z,7.97
2022-11-15T08:48:36.997Z,7.82
2022-11-15T08:51:22.325Z,7.13
2022-11-15T08:54:07.936Z,6.85
2022-11-15T08:56:53.342Z,7.32
2022-11-15T08:59:38.808Z,6.18
2022-11-15T09:02:24.113Z,7.97
2022-11-15T09:05:09.819Z,6.15
2022-11-15T09:07:55.888Z,5.85
2022-11-15T09:10:41.241Z,6.07
2022-11-15T09:13:26.789Z,6.13
2022-11-15T09:16:13.613Z,6.97
2022-11-15T09:18:58.697Z,5.45
2022-11-15T09:21:44.209Z,5.78
2022-11-15T09:24:29.569Z,5.63
2022-11-15T09:27:15.089Z,5.63
2022-11-15T09:30:00.346Z,5.88
2022-11-15T09:32:45.722Z,6.05
2022-11-15T09:35:32.373Z,5.60
2022-11-15T09:38:17.809Z,5.68
2022-11-15T09:41:15.323Z,5.28
2022-11-15T09:44:16.521Z,5.28
2022-11-15T09:47:18.403Z,5.90
2022-11-15T09:50:12.055Z,5.95
2022-11-15T09:52:57.623Z,6.00
2022-11-15T09:55:52.598Z,6.30
2022-11-15T09:58:40.675Z,6.28
2022-11-15T10:01:38.220Z,6.55
2022-11-15T10:04:26.380Z,5.85
2022-11-15T10:07:14.392Z,5.60
2022-11-15T10:10:12.926Z,5.93
2022-11-15T10:12:59.862Z,5.60
2022-11-15T10:15:48.652Z,5.00
2022-11-15T10:18:50.056Z,6.15
2022-11-15T10:21:49.970Z,5.38
2022-11-15T10:24:43.645Z,5.55
2022-11-15T10:27:30.619Z,5.90
2022-11-15T10:30:19.195Z,5.57
2022-11-15T10:33:30.716Z,5.70
2022-11-15T10:36:23.114Z,5.70
2022-11-15T10:39:13.342Z,6.05
2022-11-15T10:41:58.721Z,4.97
2022-11-15T10:44:45.800Z,5.30
2022-11-15T10:47:38.981Z,5.55
2022-11-15T10:50:33.163Z,5.97
2022-11-15T10:53:21.321Z,5.25
2022-11-15T10:56:12.133Z,5.68
2022-11-15T10:58:58.579Z,5.38
2022-11-15T11:01:48.641Z,4.57
2022-11-15T11:04:51.078Z,5.80
2022-11-15T11:07:37.829Z,4.82
2022-11-15T11:10:49.716Z,5.40
2022-11-15T11:13:39.461Z,5.13
2022-11-15T11:16:40.740Z,5.32
2022-11-15T11:19:32.167Z,5.95
2022-11-15T11:22:45.814Z,4.95
2022-11-15T11:25:35.348Z,5.38
2022-11-15T11:29:01.728Z,5.90
2022-11-15T11:32:01.012Z,5.43
2022-11-15T11:35:04.328Z,5.38
2022-11-15T11:38:04.645Z,5.10
2022-11-15T11:41:17.492Z,4.80
2022-11-15T11:46:59.548Z,5.20
2022-11-15T11:50:03.866Z,5.70
2022-11-15T11:53:12.409Z,5.50
2022-11-15T11:56:03.017Z,4.82
2022-11-15T11:58:49.392Z,5.03
2022-11-15T12:01:43.202Z,4.80
2022-11-15T12:04:39.590Z,4.95
2022-11-15T12:07:30.268Z,4.38
2022-11-15T12:10:24.207Z,4.95
2022-11-15T12:13:16.700Z,4.47
2022-11-15T12:18:56.274Z,5.10
2022-11-15T12:22:05.858Z,4.40
2022-11-15T12:24:57.955Z,4.82
2022-11-15T12:27:49.228Z,4.95
2022-11-15T12:31:04.426Z,3.67
2022-11-15T12:33:50.741Z,4.40
2022-11-15T12:36:45.078Z,4.53
2022-11-15T12:40:12.167Z,3.88
2022-11-15T12:43:14.298Z,3.80
2022-11-15T12:46:05.532Z,3.78
2022-11-15T12:49:03.130Z,4.13
2022-11-15T12:51:48.418Z,4.55
2022-11-15T12:54:42.752Z,4.25
2022-11-15T12:57:31.562Z,4.40
2022-11-15T13:00:43.471Z,3.85
2022-11-15T13:03:29.753Z,4.00
2022-11-15T13:06:40.038Z,4.20
2022-11-15T13:09:37.416Z,4.15
2022-11-15T13:12:22.718Z,4.28
2022-11-15T13:15:14.474Z,4.10
2022-11-15T13:18:19.961Z,4.67
2022-11-15T13:21:39.185Z,4.45
2022-11-15T13:24:24.526Z,4.25
2022-11-15T13:27:20.704Z,4.07
2022-11-15T13:30:06.462Z,4.40
2022-11-15T13:32:53.433Z,4.30
2022-11-15T13:35:41.982Z,3.90
2022-11-15T13:38:32.541Z,3.85
2022-11-15T13:41:17.693Z,3.85
2022-11-15T13:44:04.842Z,3.97
2022-11-15T13:47:00.923Z,4.47
2022-11-15T13:49:46.068Z,3.85
2022-11-15T13:52:36.828Z,4.22
2022-11-15T13:55:24.591Z,4.07
2022-11-15T13:58:14.077Z,3.75
2022-11-15T14:01:05.712Z,3.70
2022-11-15T14:03:58.314Z,4.47
2022-11-15T14:09:48.502Z,4.60
2022-11-15T14:12:36.295Z,4.35
2022-11-15T14:15:37.566Z,3.72
2022-11-15T14:18:46.618Z,4.65
2022-11-15T14:21:33.773Z,5.53
2022-11-15T14:24:22.049Z,4.20
2022-11-15T14:27:25.517Z,4.57
2022-11-15T14:30:16.107Z,5.80
2022-11-15T14:33:01.474Z,4.72
2022-11-15T14:35:47.482Z,4.47
2022-11-15T14:38:32.988Z,4.88
2022-11-15T14:41:27.381Z,4.45
2022-11-15T14:44:13.260Z,4.38
2022-11-15T14:46:58.757Z,3.83
2022-11-15T14:49:44.845Z,4.60
2022-11-15T14:52:36.554Z,4.72
2022-11-15T14:55:32.883Z,4.30
2022-11-15T14:58:18.071Z,4.07
2022-11-15T15:01:25.549Z,4.68
2022-11-15T15:04:11.542Z,4.20
2022-11-15T15:06:56.596Z,4.22
2022-11-15T15:09:42.740Z,4.50
2022-11-15T15:12:28.271Z,5.35
2022-11-15T15:15:16.133Z,5.25
2022-11-15T15:18:01.793Z,4.60
2022-11-15T15:20:55.310Z,4.80
2022-11-15T15:23:40.750Z,5.10
2022-11-15T15:26:26.239Z,4.75
2022-11-15T15:29:11.701Z,4.93
2022-11-15T15:31:57.054Z,5.40
2022-11-15T15:34:42.534Z,4.93
2022-11-15T15:37:28.143Z,5.05
2022-11-15T15:40:19.555Z,5.30
2022-11-15T15:43:04.886Z,4.57
2022-11-15T15:45:50.272Z,4.78
2022-11-15T15:48:38.106Z,3.95
2022-11-15T15:51:23.585Z,4.28
2022-11-15T15:54:10.465Z,4.28
2022-11-15T15:56:56.364Z,4.05
2022-11-15T15:59:42.118Z,4.30
2022-11-15T16:02:27.413Z,5.60
2022-11-15T16:05:13.283Z,4.18
2022-11-15T16:07:58.639Z,4.28
2022-11-15T16:10:43.805Z,4.28
2022-11-15T16:13:29.236Z,3.80
2022-11-15T16:16:15.396Z,3.90
2022-11-15T16:19:01.747Z,4.28
2022-11-15T16:21:47.183Z,4.70
2022-11-15T16:24:32.526Z,6.13
2022-11-15T16:27:20.699Z,4.72
2022-11-15T16:30:18.888Z,6.97
2022-11-15T16:33:04.462Z,6.60
2022-11-15T16:35:49.957Z,6.53
2022-11-15T16:38:36.755Z,5.40
2022-11-15T16:41:22.213Z,4.40
2022-11-15T16:44:07.642Z,5.38
2022-11-15T16:46:53.305Z,4.68
2022-11-15T16:49:38.441Z,5.32
2022-11-15T16:52:23.828Z,6.35
2022-11-15T16:55:09.606Z,6.57
2022-11-15T16:57:58.083Z,6.07
2022-11-15T17:00:43.598Z,7.32
2022-11-15T17:03:28.840Z,7.25
2022-11-15T17:06:15.424Z,6.85
2022-11-15T17:09:00.690Z,6.10
2022-11-15T17:11:46.445Z,5.75
2022-11-15T17:14:31.800Z,6.13
2022-11-15T17:17:17.247Z,5.75
2022-11-15T17:20:04.997Z,6.00
2022-11-15T17:22:50.321Z,6.30
2022-11-15T17:25:35.729Z,5.80
2022-11-15T17:28:21.042Z,4.68
2022-11-15T17:31:09.286Z,5.05
2022-11-15T17:33:54.631Z,4.68
2022-11-15T17:36:39.965Z,4.90
2022-11-15T17:39:25.398Z,3.97
2022-11-15T17:42:10.738Z,4.55
2022-11-15T17:44:56.186Z,3.47
2022-11-15T17:47:41.753Z,6.72
2022-11-15T17:50:27.086Z,5.25
2022-11-15T17:53:12.503Z,6.63
2022-11-15T17:56:03.726Z,7.30
2022-11-15T17:59:00.268Z,9.20
2022-11-15T18:01:45.532Z,8.13
2022-11-15T18:04:30.795Z,7.57
2022-11-15T18:07:16.308Z,6.97
2022-11-15T18:10:01.515Z,6.35
2022-11-15T18:12:46.866Z,7.22
2022-11-15T18:15:32.462Z,6.82
2022-11-15T18:18:17.569Z,6.53
2022-11-15T18:21:06.751Z,6.63
2022-11-15T18:23:56.991Z,6.25
2022-11-15T18:26:42.389Z,7.40
2022-11-15T18:29:28.222Z,7.93
2022-11-15T18:32:15.209Z,7.47
2022-11-15T18:35:00.558Z,6.68
2022-11-15T18:37:45.965Z,7.78
2022-11-15T18:40:31.264Z,7.38
2022-11-15T18:43:16.562Z,7.65
2022-11-15T18:46:10.365Z,7.13
2022-11-15T18:48:56.053Z,6.90
2022-11-15T18:51:41.954Z,6.43
2022-11-15T18:54:31.459Z,6.47
2022-11-15T18:57:17.178Z,6.43
2022-11-15T19:00:03.795Z,6.43
2022-11-15T19:02:49.102Z,7.72
2022-11-15T19:05:35.516Z,6.63
2022-11-15T19:08:20.814Z,6.28
2022-11-15T19:11:18.265Z,6.28
2022-11-15T19:14:16.831Z,7.90
2022-11-15T19:17:02.194Z,7.68
2022-11-15T19:19:47.597Z,6.15
2022-11-15T19:22:33.010Z,6.50
2022-11-15T19:25:18.809Z,8.45
2022-11-15T19:28:04.719Z,12.95
2022-11-15T19:30:50.425Z,10.20
2022-11-15T19:33:35.902Z,10.05
2022-11-15T19:36:26.883Z,7.68
2022-11-15T19:39:13.910Z,8.07
2022-11-15T19:41:59.106Z,7.88
2022-11-15T19:44:44.511Z,7.65
2022-11-15T19:47:30.332Z,7.30
2022-11-15T19:50:15.694Z,6.57
2022-11-15T19:53:01.283Z,7.43
2022-11-15T19:55:57.182Z,6.93
2022-11-15T19:58:43.314Z,6.85
2022-11-15T20:01:30.826Z,6.50
2022-11-15T20:04:16.582Z,6.32
2022-11-15T20:07:02.175Z,6.68
2022-11-15T20:09:47.904Z,8.85
2022-11-15T20:12:33.201Z,6.38
2022-11-15T20:15:18.522Z,6.82
2022-11-15T20:18:04.238Z,6.95
2022-11-15T20:20:49.925Z,7.05
2022-11-15T20:23:35.279Z,6.50
2022-11-15T20:26:21.413Z,7.30
2022-11-15T20:29:08.362Z,6.32
2022-11-15T20:31:53.364Z,6.80
2022-11-15T20:34:38.830Z,6.45
2022-11-15T20:37:24.076Z,6.45
2022-11-15T20:40:10.026Z,6.40
2022-11-15T20:42:55.510Z,6.82
2022-11-15T20:45:43.856Z,6.47
2022-11-15T20:48:29.308Z,8.57
2022-11-15T20:51:18.627Z,6.30
2022-11-15T20:54:04.112Z,5.97
2022-11-15T20:56:49.587Z,7.18
2022-11-15T20:59:35.190Z,6.80
2022-11-15T21:02:20.615Z,6.45
2022-11-15T21:05:06.738Z,7.53
2022-11-15T21:07:51.797Z,7.07
2022-11-15T21:10:55.758Z,7.13
2022-11-15T21:13:41.482Z,6.82
2022-11-15T21:16:26.636Z,6.45
2022-11-15T21:19:12.644Z,6.97
2022-11-15T21:21:58.166Z,6.47
2022-11-15T21:24:43.529Z,6.78
2022-11-15T21:27:29.092Z,6.25
2022-11-15T21:30:14.519Z,7.00
2022-11-15T21:32:59.868Z,5.88
2022-11-15T21:35:45.323Z,6.03
2022-11-15T21:38:31.468Z,5.78
2022-11-15T21:41:16.822Z,5.85
2022-11-15T21:44:03.923Z,6.60
2022-11-15T21:46:49.173Z,5.57
2022-11-15T21:49:34.543Z,6.22
2022-11-15T21:52:19.848Z,5.50
2022-11-15T21:55:05.774Z,6.10
2022-11-15T21:57:50.831Z,4.85
2022-11-15T22:00:54.980Z,6.45
2022-11-15T22:03:41.067Z,5.35
2022-11-15T22:06:26.481Z,5.05
2022-11-15T22:09:11.943Z,5.47
2022-11-15T22:11:57.760Z,5.75
2022-11-15T22:14:43.234Z,4.97
2022-11-15T22:17:48.617Z,5.88
2022-11-15T22:20:49.292Z,5.70
2022-11-15T22:23:34.482Z,5.28
2022-11-15T22:26:23.510Z,5.30
2022-11-15T22:29:09.486Z,5.50
2022-11-15T22:31:54.802Z,5.30
2022-11-15T22:34:40.280Z,5.57
2022-11-15T22:37:25.746Z,5.18
2022-11-15T22:40:11.371Z,4.75
2022-11-15T22:42:56.817Z,5.68
2022-11-15T22:45:51.360Z,4.43
2022-11-15T22:48:39.008Z,4.97
2022-11-15T22:51:24.693Z,5.22
2022-11-15T22:54:10.298Z,5.20
2022-11-15T22:56:55.734Z,5.15
2022-11-15T22:59:42.399Z,5.60
2022-11-15T23:02:27.538Z,5.10
2022-11-15T23:05:13.175Z,5.80
2022-11-15T23:07:58.424Z,5.15
2022-11-15T23:11:03.005Z,4.93
2022-11-15T23:13:51.739Z,4.90
2022-11-15T23:16:37.009Z,4.93
2022-11-15T23:19:22.521Z,5.28
2022-11-15T23:22:26.602Z,5.38
2022-11-15T23:25:12.036Z,5.07
2022-11-15T23:27:57.361Z,5.10
2022-11-15T23:31:02.056Z,5.30
2022-11-15T23:34:00.233Z,5.18
2022-11-15T23:36:46.079Z,4.50
2022-11-15T23:39:31.812Z,5.32
2022-11-15T23:42:20.205Z,5.00
2022-11-15T23:45:07.334Z,4.32
2022-11-15T23:47:58.405Z,5.50
2022-11-15T23:50:47.990Z,4.68
2022-11-15T23:53:34.301Z,5.25
2022-11-15T23:56:21.454Z,5.30
2022-11-15T23:59:07.461Z,5.18
